sensor_id;sensor_type;location;lat;lon;timestamp;pressure;altitude;pressure_sealevel;temperature;humidity
18022;BME280;9136;48.822;7.966;2022-08-01T00:00:21;100276.41;;;21.69;64.97
18022;BME280;9136;48.822;7.966;2022-08-01T00:03:10;100271.19;;;21.68;65.16
18022;BME280;9136;48.822;7.966;2022-08-01T00:05:57;100268.91;;;21.63;65.73
18022;BME280;9136;48.822;7.966;2022-08-01T00:08:45;100276.78;;;21.65;65.92
18022;BME280;9136;48.822;7.966;2022-08-01T00:11:33;100270.94;;;21.60;65.69
18022;BME280;9136;48.822;7.966;2022-08-01T00:14:21;100273.00;;;21.56;66.80
18022;BME280;9136;48.822;7.966;2022-08-01T00:17:08;100278.69;;;21.52;67.65
18022;BME280;9136;48.822;7.966;2022-08-01T00:19:58;100292.56;;;21.46;68.75
18022;BME280;9136;48.822;7.966;2022-08-01T00:22:45;100295.19;;;21.34;69.68
18022;BME280;9136;48.822;7.966;2022-08-01T00:25:33;100283.41;;;21.37;69.17
18022;BME280;9136;48.822;7.966;2022-08-01T00:28:21;100303.81;;;21.38;70.23
18022;BME280;9136;48.822;7.966;2022-08-01T00:31:09;100279.84;;;21.25;69.67
18022;BME280;9136;48.822;7.966;2022-08-01T00:33:57;100286.81;;;21.04;71.87
18022;BME280;9136;48.822;7.966;2022-08-01T00:36:46;100281.91;;;20.98;72.57
18022;BME280;9136;48.822;7.966;2022-08-01T00:39:34;100290.94;;;21.08;73.80
18022;BME280;9136;48.822;7.966;2022-08-01T00:42:21;100309.13;;;21.03;73.96
18022;BME280;9136;48.822;7.966;2022-08-01T00:45:10;100265.31;;;20.81;74.72
18022;BME280;9136;48.822;7.966;2022-08-01T00:47:57;100264.47;;;20.81;75.05
18022;BME280;9136;48.822;7.966;2022-08-01T00:50:45;100295.16;;;20.99;75.63
18022;BME280;9136;48.822;7.966;2022-08-01T00:53:35;100281.22;;;20.83;77.49
18022;BME280;9136;48.822;7.966;2022-08-01T00:56:25;100287.22;;;20.86;80.13
18022;BME280;9136;48.822;7.966;2022-08-01T00:59:14;100293.63;;;20.84;78.75
18022;BME280;9136;48.822;7.966;2022-08-01T01:02:03;100310.50;;;20.84;87.05
18022;BME280;9136;48.822;7.966;2022-08-01T01:04:51;100286.50;;;20.48;90.95
18022;BME280;9136;48.822;7.966;2022-08-01T01:07:44;100300.84;;;20.21;98.97
18022;BME280;9136;48.822;7.966;2022-08-01T01:10:42;100282.66;;;19.90;100.00
18022;BME280;9136;48.822;7.966;2022-08-01T01:13:35;100291.69;;;19.87;100.00
18022;BME280;9136;48.822;7.966;2022-08-01T01:16:25;100280.59;;;19.68;100.00
18022;BME280;9136;48.822;7.966;2022-08-01T01:19:20;100307.28;;;19.81;100.00
18022;BME280;9136;48.822;7.966;2022-08-01T01:22:21;100311.53;;;19.83;100.00
18022;BME280;9136;48.822;7.966;2022-08-01T01:25:26;100299.41;;;19.79;100.00
18022;BME280;9136;48.822;7.966;2022-08-01T01:28:25;100297.88;;;19.75;100.00
18022;BME280;9136;48.822;7.966;2022-08-01T01:31:18;100312.28;;;19.85;100.00
18022;BME280;9136;48.822;7.966;2022-08-01T01:34:07;100285.19;;;19.66;100.00
18022;BME280;9136;48.822;7.966;2022-08-01T01:36:58;100300.34;;;19.65;100.00
18022;BME280;9136;48.822;7.966;2022-08-01T01:39:48;100302.88;;;19.67;100.00
18022;BME280;9136;48.822;7.966;2022-08-01T01:42:37;100300.78;;;19.59;99.76
18022;BME280;9136;48.822;7.966;2022-08-01T01:45:26;100298.31;;;19.56;98.97
18022;BME280;9136;48.822;7.966;2022-08-01T01:48:19;100304.31;;;19.60;99.23
18022;BME280;9136;48.822;7.966;2022-08-01T01:51:07;100308.31;;;19.53;99.00
18022;BME280;9136;48.822;7.966;2022-08-01T01:53:57;100292.59;;;19.35;100.00
18022;BME280;9136;48.822;7.966;2022-08-01T01:56:46;100315.22;;;19.42;99.40
18022;BME280;9136;48.822;7.966;2022-08-01T01:59:37;100311.69;;;19.42;100.00
18022;BME280;9136;48.822;7.966;2022-08-01T02:02:26;100285.13;;;19.28;100.00
18022;BME280;9136;48.822;7.966;2022-08-01T02:05:17;100303.25;;;19.23;100.00
18022;BME280;9136;48.822;7.966;2022-08-01T02:08:07;100290.84;;;19.09;100.00
18022;BME280;9136;48.822;7.966;2022-08-01T02:10:57;100305.56;;;19.14;100.00
18022;BME280;9136;48.822;7.966;2022-08-01T02:14:03;100308.44;;;19.11;100.00
18022;BME280;9136;48.822;7.966;2022-08-01T02:16:51;100311.97;;;19.12;100.00
18022;BME280;9136;48.822;7.966;2022-08-01T02:19:39;100299.75;;;18.95;100.00
18022;BME280;9136;48.822;7.966;2022-08-01T02:22:32;100289.16;;;18.81;100.00
18022;BME280;9136;48.822;7.966;2022-08-01T02:25:24;100299.19;;;18.90;100.00
18022;BME280;9136;48.822;7.966;2022-08-01T02:28:17;100297.91;;;18.83;100.00
18022;BME280;9136;48.822;7.966;2022-08-01T02:31:08;100289.84;;;18.70;100.00
18022;BME280;9136;48.822;7.966;2022-08-01T02:34:00;100298.16;;;18.66;100.00
18022;BME280;9136;48.822;7.966;2022-08-01T02:36:51;100318.09;;;18.73;100.00
18022;BME280;9136;48.822;7.966;2022-08-01T02:39:42;100311.53;;;18.64;100.00
18022;BME280;9136;48.822;7.966;2022-08-01T02:42:34;100300.72;;;18.53;100.00
18022;BME280;9136;48.822;7.966;2022-08-01T02:45:25;100306.91;;;18.53;100.00
18022;BME280;9136;48.822;7.966;2022-08-01T02:48:15;100305.84;;;18.42;100.00
18022;BME280;9136;48.822;7.966;2022-08-01T02:51:06;100294.50;;;18.25;100.00
18022;BME280;9136;48.822;7.966;2022-08-01T02:53:56;100289.56;;;18.19;100.00
18022;BME280;9136;48.822;7.966;2022-08-01T02:56:47;100316.81;;;18.37;100.00
18022;BME280;9136;48.822;7.966;2022-08-01T02:59:37;100325.25;;;18.44;100.00
18022;BME280;9136;48.822;7.966;2022-08-01T03:02:27;100320.31;;;18.38;100.00
18022;BME280;9136;48.822;7.966;2022-08-01T03:05:17;100299.63;;;18.28;100.00
18022;BME280;9136;48.822;7.966;2022-08-01T03:08:06;100315.66;;;18.41;100.00
18022;BME280;9136;48.822;7.966;2022-08-01T03:10:56;100312.53;;;18.35;100.00
18022;BME280;9136;48.822;7.966;2022-08-01T03:13:48;100316.31;;;18.30;100.00
18022;BME280;9136;48.822;7.966;2022-08-01T03:16:38;100299.25;;;18.35;100.00
18022;BME280;9136;48.822;7.966;2022-08-01T03:19:29;100300.34;;;18.45;100.00
18022;BME280;9136;48.822;7.966;2022-08-01T03:22:21;100329.78;;;18.70;100.00
18022;BME280;9136;48.822;7.966;2022-08-01T03:25:12;100304.97;;;18.70;100.00
18022;BME280;9136;48.822;7.966;2022-08-01T03:28:03;100314.84;;;18.82;100.00
18022;BME280;9136;48.822;7.966;2022-08-01T03:30:52;100335.59;;;18.90;100.00
18022;BME280;9136;48.822;7.966;2022-08-01T03:33:41;100328.41;;;18.92;100.00
18022;BME280;9136;48.822;7.966;2022-08-01T03:36:30;100321.75;;;18.84;100.00
18022;BME280;9136;48.822;7.966;2022-08-01T03:39:22;100307.72;;;18.68;100.00
18022;BME280;9136;48.822;7.966;2022-08-01T03:42:14;100322.75;;;18.69;100.00
18022;BME280;9136;48.822;7.966;2022-08-01T03:45:07;100316.16;;;18.60;100.00
18022;BME280;9136;48.822;7.966;2022-08-01T03:48:00;100312.56;;;18.62;100.00
18022;BME280;9136;48.822;7.966;2022-08-01T03:50:51;100321.03;;;18.68;100.00
18022;BME280;9136;48.822;7.966;2022-08-01T03:53:41;100313.94;;;18.54;100.00
18022;BME280;9136;48.822;7.966;2022-08-01T03:56:30;100310.16;;;18.44;100.00
18022;BME280;9136;48.822;7.966;2022-08-01T03:59:19;100307.22;;;18.35;100.00
18022;BME280;9136;48.822;7.966;2022-08-01T04:02:08;100310.25;;;18.28;100.00
18022;BME280;9136;48.822;7.966;2022-08-01T04:04:59;100320.53;;;18.35;100.00
18022;BME280;9136;48.822;7.966;2022-08-01T04:07:48;100316.59;;;18.54;100.00
18022;BME280;9136;48.822;7.966;2022-08-01T04:10:41;100315.94;;;18.65;100.00
18022;BME280;9136;48.822;7.966;2022-08-01T04:13:30;100310.88;;;18.75;100.00
18022;BME280;9136;48.822;7.966;2022-08-01T04:16:17;100330.84;;;18.95;100.00
18022;BME280;9136;48.822;7.966;2022-08-01T04:19:05;100320.09;;;18.96;100.00
18022;BME280;9136;48.822;7.966;2022-08-01T04:21:55;100317.31;;;18.98;100.00
18022;BME280;9136;48.822;7.966;2022-08-01T04:24:46;100310.50;;;18.94;100.00
18022;BME280;9136;48.822;7.966;2022-08-01T04:27:38;100320.56;;;19.03;100.00
18022;BME280;9136;48.822;7.966;2022-08-01T04:30:30;100307.84;;;18.94;100.00
18022;BME280;9136;48.822;7.966;2022-08-01T04:33:19;100321.19;;;19.06;100.00
18022;BME280;9136;48.822;7.966;2022-08-01T04:36:08;100346.00;;;19.07;100.00
18022;BME280;9136;48.822;7.966;2022-08-01T04:39:00;100338.94;;;18.93;100.00
18022;BME280;9136;48.822;7.966;2022-08-01T04:41:49;100347.78;;;18.94;100.00
18022;BME280;9136;48.822;7.966;2022-08-01T04:44:38;100343.09;;;18.97;100.00
18022;BME280;9136;48.822;7.966;2022-08-01T04:47:27;100342.03;;;19.00;100.00
18022;BME280;9136;48.822;7.966;2022-08-01T04:50:15;100323.22;;;19.03;100.00
18022;BME280;9136;48.822;7.966;2022-08-01T04:53:03;100347.56;;;19.24;100.00
18022;BME280;9136;48.822;7.966;2022-08-01T04:55:52;100330.84;;;19.22;100.00
18022;BME280;9136;48.822;7.966;2022-08-01T04:58:41;100342.88;;;19.27;100.00
18022;BME280;9136;48.822;7.966;2022-08-01T05:01:29;100344.47;;;19.30;100.00
18022;BME280;9136;48.822;7.966;2022-08-01T05:04:16;100340.03;;;19.30;100.00
18022;BME280;9136;48.822;7.966;2022-08-01T05:07:05;100354.66;;;19.50;100.00
18022;BME280;9136;48.822;7.966;2022-08-01T05:09:53;100339.44;;;19.52;100.00
18022;BME280;9136;48.822;7.966;2022-08-01T05:12:42;100353.13;;;19.73;100.00
18022;BME280;9136;48.822;7.966;2022-08-01T05:15:30;100350.78;;;19.81;100.00
18022;BME280;9136;48.822;7.966;2022-08-01T05:18:18;100353.88;;;19.88;100.00
18022;BME280;9136;48.822;7.966;2022-08-01T05:21:06;100370.28;;;20.07;100.00
18022;BME280;9136;48.822;7.966;2022-08-01T05:23:53;100351.44;;;20.10;100.00
18022;BME280;9136;48.822;7.966;2022-08-01T05:26:41;100369.00;;;20.25;100.00
18022;BME280;9136;48.822;7.966;2022-08-01T05:29:30;100385.13;;;20.37;100.00
18022;BME280;9136;48.822;7.966;2022-08-01T05:32:18;100370.28;;;20.33;100.00
18022;BME280;9136;48.822;7.966;2022-08-01T05:35:07;100373.19;;;20.29;100.00
18022;BME280;9136;48.822;7.966;2022-08-01T05:37:55;100359.41;;;20.23;100.00
18022;BME280;9136;48.822;7.966;2022-08-01T05:40:43;100379.69;;;20.13;100.00
18022;BME280;9136;48.822;7.966;2022-08-01T05:43:31;100372.03;;;20.08;100.00
18022;BME280;9136;48.822;7.966;2022-08-01T05:46:20;100356.00;;;19.83;100.00
18022;BME280;9136;48.822;7.966;2022-08-01T05:49:08;100349.09;;;19.80;100.00
18022;BME280;9136;48.822;7.966;2022-08-01T05:51:56;100353.13;;;19.86;100.00
18022;BME280;9136;48.822;7.966;2022-08-01T05:54:43;100364.34;;;20.04;100.00
18022;BME280;9136;48.822;7.966;2022-08-01T05:57:31;100350.97;;;20.16;100.00
18022;BME280;9136;48.822;7.966;2022-08-01T06:00:19;100356.22;;;20.18;100.00
18022;BME280;9136;48.822;7.966;2022-08-01T06:03:09;100355.78;;;20.24;100.00
18022;BME280;9136;48.822;7.966;2022-08-01T06:05:57;100358.75;;;20.32;100.00
18022;BME280;9136;48.822;7.966;2022-08-01T06:08:45;100354.28;;;20.45;100.00
18022;BME280;9136;48.822;7.966;2022-08-01T06:11:33;100354.66;;;20.65;100.00
18022;BME280;9136;48.822;7.966;2022-08-01T06:14:21;100335.41;;;20.85;100.00
18022;BME280;9136;48.822;7.966;2022-08-01T06:17:08;100350.13;;;21.14;100.00
18022;BME280;9136;48.822;7.966;2022-08-01T06:19:58;100338.22;;;21.19;100.00
18022;BME280;9136;48.822;7.966;2022-08-01T06:22:46;100332.63;;;21.22;100.00
18022;BME280;9136;48.822;7.966;2022-08-01T06:25:33;100349.84;;;21.30;100.00
18022;BME280;9136;48.822;7.966;2022-08-01T06:28:22;100368.56;;;21.41;99.98
18022;BME280;9136;48.822;7.966;2022-08-01T06:31:09;100365.00;;;21.54;98.94
18022;BME280;9136;48.822;7.966;2022-08-01T06:33:58;100355.50;;;21.50;98.45
18022;BME280;9136;48.822;7.966;2022-08-01T06:36:48;100350.38;;;21.47;99.97
18022;BME280;9136;48.822;7.966;2022-08-01T06:39:35;100346.41;;;21.52;97.83
18022;BME280;9136;48.822;7.966;2022-08-01T06:42:23;100353.97;;;21.69;99.81
18022;BME280;9136;48.822;7.966;2022-08-01T06:45:12;100351.16;;;21.71;97.33
18022;BME280;9136;48.822;7.966;2022-08-01T06:48:00;100345.97;;;21.81;98.04
18022;BME280;9136;48.822;7.966;2022-08-01T06:50:48;100355.34;;;21.97;97.08
18022;BME280;9136;48.822;7.966;2022-08-01T06:53:55;100356.16;;;22.22;96.04
18022;BME280;9136;48.822;7.966;2022-08-01T06:56:43;100366.25;;;22.30;93.35
18022;BME280;9136;48.822;7.966;2022-08-01T06:59:30;100365.38;;;22.29;93.85
18022;BME280;9136;48.822;7.966;2022-08-01T07:02:18;100374.63;;;22.36;93.71
18022;BME280;9136;48.822;7.966;2022-08-01T07:05:06;100386.56;;;22.43;94.31
18022;BME280;9136;48.822;7.966;2022-08-01T07:07:55;100384.13;;;22.40;95.56
18022;BME280;9136;48.822;7.966;2022-08-01T07:10:44;100371.22;;;22.56;93.55
18022;BME280;9136;48.822;7.966;2022-08-01T07:13:32;100350.75;;;22.67;92.19
18022;BME280;9136;48.822;7.966;2022-08-01T07:16:20;100359.00;;;22.75;89.51
18022;BME280;9136;48.822;7.966;2022-08-01T07:19:08;100360.63;;;22.89;88.12
18022;BME280;9136;48.822;7.966;2022-08-01T07:21:56;100360.19;;;23.04;87.76
18022;BME280;9136;48.822;7.966;2022-08-01T07:24:43;100357.72;;;23.12;85.83
18022;BME280;9136;48.822;7.966;2022-08-01T07:27:33;100353.72;;;23.18;85.51
18022;BME280;9136;48.822;7.966;2022-08-01T07:30:21;100361.16;;;23.35;85.25
18022;BME280;9136;48.822;7.966;2022-08-01T07:33:08;100339.53;;;23.27;85.40
18022;BME280;9136;48.822;7.966;2022-08-01T07:35:56;100364.97;;;23.54;90.52
18022;BME280;9136;48.822;7.966;2022-08-01T07:38:44;100357.88;;;23.64;84.88
18022;BME280;9136;48.822;7.966;2022-08-01T07:41:32;100371.19;;;23.86;82.55
18022;BME280;9136;48.822;7.966;2022-08-01T07:44:21;100357.69;;;23.97;82.53
18022;BME280;9136;48.822;7.966;2022-08-01T07:47:09;100369.91;;;24.11;81.76
18022;BME280;9136;48.822;7.966;2022-08-01T07:50:00;100364.69;;;24.10;80.54
18022;BME280;9136;48.822;7.966;2022-08-01T07:52:48;100347.84;;;23.77;79.13
18022;BME280;9136;48.822;7.966;2022-08-01T07:55:35;100358.63;;;23.87;81.69
18022;BME280;9136;48.822;7.966;2022-08-01T07:58:23;100344.03;;;23.80;81.97
18022;BME280;9136;48.822;7.966;2022-08-01T08:01:12;100353.09;;;24.09;83.12
18022;BME280;9136;48.822;7.966;2022-08-01T08:04:00;100357.94;;;24.15;78.30
18022;BME280;9136;48.822;7.966;2022-08-01T08:06:48;100337.88;;;24.19;76.76
18022;BME280;9136;48.822;7.966;2022-08-01T08:09:36;100354.25;;;24.37;76.23
18022;BME280;9136;48.822;7.966;2022-08-01T08:12:24;100333.94;;;24.54;76.93
18022;BME280;9136;48.822;7.966;2022-08-01T08:15:12;100336.13;;;24.79;74.07
18022;BME280;9136;48.822;7.966;2022-08-01T08:18:02;100344.88;;;24.72;72.16
18022;BME280;9136;48.822;7.966;2022-08-01T08:20:50;100348.25;;;24.64;75.62
18022;BME280;9136;48.822;7.966;2022-08-01T08:23:38;100333.41;;;24.70;76.65
18022;BME280;9136;48.822;7.966;2022-08-01T08:26:43;100323.41;;;24.81;73.98
18022;BME280;9136;48.822;7.966;2022-08-01T08:29:31;100328.94;;;24.99;71.83
18022;BME280;9136;48.822;7.966;2022-08-01T08:32:19;100326.38;;;24.88;70.54
18022;BME280;9136;48.822;7.966;2022-08-01T08:35:09;100330.97;;;25.07;68.78
18022;BME280;9136;48.822;7.966;2022-08-01T08:37:56;100323.19;;;25.14;68.40
18022;BME280;9136;48.822;7.966;2022-08-01T08:40:44;100323.44;;;25.01;70.39
18022;BME280;9136;48.822;7.966;2022-08-01T08:43:32;100326.84;;;25.42;71.57
18022;BME280;9136;48.822;7.966;2022-08-01T08:46:21;100329.09;;;25.46;68.48
18022;BME280;9136;48.822;7.966;2022-08-01T08:49:12;100313.81;;;25.47;67.98
18022;BME280;9136;48.822;7.966;2022-08-01T08:52:02;100324.72;;;25.55;67.96
18022;BME280;9136;48.822;7.966;2022-08-01T08:54:51;100307.41;;;25.77;66.43
18022;BME280;9136;48.822;7.966;2022-08-01T08:57:40;100319.50;;;26.10;62.75
18022;BME280;9136;48.822;7.966;2022-08-01T09:00:30;100311.19;;;25.93;63.07
18022;BME280;9136;48.822;7.966;2022-08-01T09:03:18;100317.63;;;26.20;61.47
18022;BME280;9136;48.822;7.966;2022-08-01T09:06:06;100310.28;;;26.12;61.26
18022;BME280;9136;48.822;7.966;2022-08-01T09:08:55;100312.81;;;26.14;60.49
18022;BME280;9136;48.822;7.966;2022-08-01T09:11:43;100328.44;;;26.10;60.48
18022;BME280;9136;48.822;7.966;2022-08-01T09:14:31;100315.94;;;26.19;61.19
18022;BME280;9136;48.822;7.966;2022-08-01T09:17:21;100303.09;;;26.86;58.64
18022;BME280;9136;48.822;7.966;2022-08-01T09:20:22;100321.91;;;26.95;58.07
18022;BME280;9136;48.822;7.966;2022-08-01T09:23:31;100319.00;;;26.61;57.09
18022;BME280;9136;48.822;7.966;2022-08-01T09:26:28;100318.06;;;26.52;60.37
18022;BME280;9136;48.822;7.966;2022-08-01T09:29:19;100316.66;;;26.76;57.81
18022;BME280;9136;48.822;7.966;2022-08-01T09:32:08;100331.09;;;26.57;58.10
18022;BME280;9136;48.822;7.966;2022-08-01T09:34:56;100332.66;;;26.77;57.55
18022;BME280;9136;48.822;7.966;2022-08-01T09:37:44;100318.25;;;27.14;57.45
18022;BME280;9136;48.822;7.966;2022-08-01T09:40:44;100323.56;;;27.24;54.91
18022;BME280;9136;48.822;7.966;2022-08-01T09:43:33;100343.97;;;27.26;54.99
18022;BME280;9136;48.822;7.966;2022-08-01T09:46:21;100341.59;;;27.41;53.98
18022;BME280;9136;48.822;7.966;2022-08-01T09:49:09;100329.47;;;27.27;54.19
18022;BME280;9136;48.822;7.966;2022-08-01T09:51:58;100332.16;;;27.45;52.96
18022;BME280;9136;48.822;7.966;2022-08-01T09:54:52;100328.09;;;27.85;50.18
18022;BME280;9136;48.822;7.966;2022-08-01T09:57:54;100332.78;;;27.39;51.08
18022;BME280;9136;48.822;7.966;2022-08-01T10:00:58;100331.56;;;27.16;53.89
18022;BME280;9136;48.822;7.966;2022-08-01T10:03:47;100316.19;;;26.98;55.58
18022;BME280;9136;48.822;7.966;2022-08-01T10:06:51;100326.78;;;27.09;53.29
18022;BME280;9136;48.822;7.966;2022-08-01T10:09:39;100332.91;;;27.73;52.54
18022;BME280;9136;48.822;7.966;2022-08-01T10:12:32;100334.47;;;28.02;50.79
18022;BME280;9136;48.822;7.966;2022-08-01T10:15:20;100318.69;;;27.45;52.90
18022;BME280;9136;48.822;7.966;2022-08-01T10:18:10;100341.13;;;27.10;52.59
18022;BME280;9136;48.822;7.966;2022-08-01T10:21:00;100322.34;;;27.62;52.17
18022;BME280;9136;48.822;7.966;2022-08-01T10:23:49;100310.78;;;27.95;51.53
18022;BME280;9136;48.822;7.966;2022-08-01T10:26:37;100320.50;;;27.80;49.95
18022;BME280;9136;48.822;7.966;2022-08-01T10:29:26;100307.38;;;27.42;51.73
18022;BME280;9136;48.822;7.966;2022-08-01T10:32:14;100311.91;;;27.85;50.92
18022;BME280;9136;48.822;7.966;2022-08-01T10:35:06;100308.28;;;28.02;50.47
18022;BME280;9136;48.822;7.966;2022-08-01T10:37:55;100318.03;;;27.69;49.79
18022;BME280;9136;48.822;7.966;2022-08-01T10:40:44;100314.25;;;27.80;49.59
18022;BME280;9136;48.822;7.966;2022-08-01T10:43:32;100297.03;;;28.41;51.44
18022;BME280;9136;48.822;7.966;2022-08-01T10:46:20;100317.19;;;28.63;48.60
18022;BME280;9136;48.822;7.966;2022-08-01T10:49:11;100295.59;;;27.94;46.84
18022;BME280;9136;48.822;7.966;2022-08-01T10:52:02;100284.84;;;27.51;47.41
18022;BME280;9136;48.822;7.966;2022-08-01T10:55:01;100292.16;;;27.84;47.89
18022;BME280;9136;48.822;7.966;2022-08-01T10:57:49;100291.25;;;28.02;46.12
18022;BME280;9136;48.822;7.966;2022-08-01T11:00:37;100280.16;;;28.13;47.38
18022;BME280;9136;48.822;7.966;2022-08-01T11:03:34;100289.13;;;27.87;49.17
18022;BME280;9136;48.822;7.966;2022-08-01T11:06:24;100301.09;;;29.20;46.99
18022;BME280;9136;48.822;7.966;2022-08-01T11:09:23;100296.34;;;29.71;43.63
18022;BME280;9136;48.822;7.966;2022-08-01T11:12:12;100277.69;;;28.70;46.24
18022;BME280;9136;48.822;7.966;2022-08-01T11:15:23;100298.28;;;28.63;46.88
18022;BME280;9136;48.822;7.966;2022-08-01T11:18:31;100282.81;;;29.14;45.24
18022;BME280;9136;48.822;7.966;2022-08-01T11:21:19;100278.69;;;31.99;41.15
18022;BME280;9136;48.822;7.966;2022-08-01T11:24:10;100272.72;;;32.90;35.49
18022;BME280;9136;48.822;7.966;2022-08-01T11:27:17;100264.47;;;32.62;37.12
18022;BME280;9136;48.822;7.966;2022-08-01T11:30:22;100255.91;;;31.10;40.03
18022;BME280;9136;48.822;7.966;2022-08-01T11:33:12;100240.72;;;31.23;40.72
18022;BME280;9136;48.822;7.966;2022-08-01T11:36:17;100268.25;;;29.72;42.68
18022;BME280;9136;48.822;7.966;2022-08-01T11:39:15;100268.19;;;28.58;44.51
18022;BME280;9136;48.822;7.966;2022-08-01T11:42:19;100249.00;;;28.93;44.46
18022;BME280;9136;48.822;7.966;2022-08-01T11:45:08;100249.66;;;31.09;40.14
18022;BME280;9136;48.822;7.966;2022-08-01T11:47:57;100263.41;;;31.30;39.61
18022;BME280;9136;48.822;7.966;2022-08-01T11:50:45;100272.31;;;31.92;38.63
18022;BME280;9136;48.822;7.966;2022-08-01T11:53:33;100243.25;;;32.07;36.95
18022;BME280;9136;48.822;7.966;2022-08-01T11:56:24;100270.91;;;31.81;38.92
18022;BME280;9136;48.822;7.966;2022-08-01T11:59:13;100270.28;;;31.56;37.17
18022;BME280;9136;48.822;7.966;2022-08-01T12:02:01;100238.47;;;34.14;32.55
18022;BME280;9136;48.822;7.966;2022-08-01T12:04:52;100232.66;;;34.85;32.96
18022;BME280;9136;48.822;7.966;2022-08-01T12:07:42;100261.66;;;33.91;33.86
18022;BME280;9136;48.822;7.966;2022-08-01T12:10:33;100232.09;;;31.57;37.13
18022;BME280;9136;48.822;7.966;2022-08-01T12:13:22;100233.56;;;30.85;38.99
18022;BME280;9136;48.822;7.966;2022-08-01T12:16:12;100230.94;;;32.40;35.90
18022;BME280;9136;48.822;7.966;2022-08-01T12:19:00;100231.88;;;32.69;35.11
18022;BME280;9136;48.822;7.966;2022-08-01T12:22:11;100242.56;;;33.91;34.74
18022;BME280;9136;48.822;7.966;2022-08-01T12:25:05;100232.38;;;34.47;33.96
18022;BME280;9136;48.822;7.966;2022-08-01T12:27:53;100221.63;;;32.50;35.99
18022;BME280;9136;48.822;7.966;2022-08-01T12:30:43;100238.91;;;32.99;34.89
18022;BME280;9136;48.822;7.966;2022-08-01T12:33:32;100242.97;;;34.29;33.07
18022;BME280;9136;48.822;7.966;2022-08-01T12:36:27;100218.81;;;34.93;31.27
18022;BME280;9136;48.822;7.966;2022-08-01T12:39:15;100231.31;;;34.00;33.36
18022;BME280;9136;48.822;7.966;2022-08-01T12:42:06;100224.56;;;33.96;31.84
18022;BME280;9136;48.822;7.966;2022-08-01T12:44:54;100224.78;;;34.42;30.74
18022;BME280;9136;48.822;7.966;2022-08-01T12:47:47;100229.88;;;35.84;28.48
18022;BME280;9136;48.822;7.966;2022-08-01T12:50:37;100224.06;;;37.02;27.73
18022;BME280;9136;48.822;7.966;2022-08-01T12:53:26;100229.91;;;33.20;32.30
18022;BME280;9136;48.822;7.966;2022-08-01T12:56:14;100210.06;;;31.38;34.97
18022;BME280;9136;48.822;7.966;2022-08-01T12:59:19;100226.56;;;29.89;37.66
18022;BME280;9136;48.822;7.966;2022-08-01T13:02:08;100213.59;;;29.68;40.26
18022;BME280;9136;48.822;7.966;2022-08-01T13:04:57;100203.69;;;32.91;33.30
18022;BME280;9136;48.822;7.966;2022-08-01T13:07:49;100231.09;;;31.88;35.41
18022;BME280;9136;48.822;7.966;2022-08-01T13:10:37;100225.47;;;32.77;34.52
18022;BME280;9136;48.822;7.966;2022-08-01T13:13:26;100227.47;;;33.88;32.24
18022;BME280;9136;48.822;7.966;2022-08-01T13:16:25;100224.78;;;32.89;33.40
18022;BME280;9136;48.822;7.966;2022-08-01T13:19:13;100237.31;;;32.33;33.97
18022;BME280;9136;48.822;7.966;2022-08-01T13:22:01;100221.19;;;31.43;35.28
18022;BME280;9136;48.822;7.966;2022-08-01T13:24:50;100220.56;;;31.70;36.24
18022;BME280;9136;48.822;7.966;2022-08-01T13:27:38;100210.28;;;30.90;36.90
18022;BME280;9136;48.822;7.966;2022-08-01T13:30:26;100209.09;;;31.08;38.31
18022;BME280;9136;48.822;7.966;2022-08-01T13:33:14;100208.72;;;32.37;34.25
18022;BME280;9136;48.822;7.966;2022-08-01T13:36:01;100189.88;;;32.21;34.86
18022;BME280;9136;48.822;7.966;2022-08-01T13:38:49;100206.75;;;32.67;34.02
18022;BME280;9136;48.822;7.966;2022-08-01T13:41:56;100206.28;;;34.38;32.11
18022;BME280;9136;48.822;7.966;2022-08-01T13:44:44;100201.34;;;34.75;30.97
18022;BME280;9136;48.822;7.966;2022-08-01T13:47:31;100203.69;;;35.57;29.11
18022;BME280;9136;48.822;7.966;2022-08-01T13:50:19;100195.47;;;35.57;29.36
18022;BME280;9136;48.822;7.966;2022-08-01T13:53:07;100218.25;;;36.60;28.10
18022;BME280;9136;48.822;7.966;2022-08-01T13:55:55;100208.13;;;36.61;28.42
18022;BME280;9136;48.822;7.966;2022-08-01T13:58:45;100211.63;;;37.31;28.20
18022;BME280;9136;48.822;7.966;2022-08-01T14:01:33;100212.03;;;35.82;29.44
18022;BME280;9136;48.822;7.966;2022-08-01T14:04:21;100206.69;;;34.28;31.74
18022;BME280;9136;48.822;7.966;2022-08-01T14:07:09;100210.72;;;33.63;33.38
18022;BME280;9136;48.822;7.966;2022-08-01T14:09:57;100201.56;;;33.15;32.67
18022;BME280;9136;48.822;7.966;2022-08-01T14:12:45;100197.22;;;32.78;34.39
18022;BME280;9136;48.822;7.966;2022-08-01T14:15:34;100198.88;;;34.19;35.15
18022;BME280;9136;48.822;7.966;2022-08-01T14:18:22;100198.47;;;33.80;32.72
18022;BME280;9136;48.822;7.966;2022-08-01T14:21:10;100196.59;;;32.75;33.43
18022;BME280;9136;48.822;7.966;2022-08-01T14:23:57;100198.63;;;31.27;37.66
18022;BME280;9136;48.822;7.966;2022-08-01T14:26:45;100192.13;;;30.68;37.36
18022;BME280;9136;48.822;7.966;2022-08-01T14:29:33;100193.34;;;30.03;38.85
18022;BME280;9136;48.822;7.966;2022-08-01T14:32:22;100184.06;;;29.34;39.20
18022;BME280;9136;48.822;7.966;2022-08-01T14:35:10;100196.59;;;29.27;40.11
18022;BME280;9136;48.822;7.966;2022-08-01T14:37:58;100194.75;;;29.19;39.94
18022;BME280;9136;48.822;7.966;2022-08-01T14:40:45;100177.34;;;29.05;40.92
18022;BME280;9136;48.822;7.966;2022-08-01T14:43:37;100201.00;;;29.20;41.59
18022;BME280;9136;48.822;7.966;2022-08-01T14:46:25;100191.34;;;29.25;41.95
18022;BME280;9136;48.822;7.966;2022-08-01T14:49:14;100190.16;;;29.20;41.36
18022;BME280;9136;48.822;7.966;2022-08-01T14:52:02;100192.56;;;29.15;40.39
18022;BME280;9136;48.822;7.966;2022-08-01T14:54:49;100190.88;;;28.97;40.88
18022;BME280;9136;48.822;7.966;2022-08-01T14:57:38;100194.91;;;29.26;41.19